Pagina principală
METAR-TAF:

METAR-TAF

Aeroporturi :

Harlan Municipal Airport

Harlan, Iowa, Statele Unite ale Americii

Latitudine: 41-35-04N, longitudine: 095-20-23W, elevație: 375 m

Observații meteo curente

Raportul a fost făcut în urmă cu 35 de minute, la 12:15 UTC
Vânt 12 kt de la Nord cu rafale de până la 17 kt
Temperatură 6°C
Umiditate 100%
Presiune 1020 hPa
Vizibilitate: 14.5 km
Nori împrăștiați la o înălțime de 800 picior
Nori fragmentați la o înălțime de 6000 picior

METAR: KHNR 181215Z AUTO 35012G17KT 9SM SCT008 BKN060 06/06 A3011 RMK A01

Ora: 07:50 (12:50 UTC)


TAF: lipsă

Observații și prognoze meteo pentru peste 4.000 de aeroporturi (rapoarte METAR și TAF).

Stațiile disponibile sunt reprezentate pe hartă prin puncte galbene și roșii.

Țineți indicatorul mouse-ului pe punctul dorit pentru a vedea denumirea stației.

Apoi, faceți clic pentru a vedea observațiile și prognozele meteorologice.

Pentru a schimba harta: Pentru mărire, faceți clic pe butoanele verzi cu cruce neagră; pentru micșorare, pe butonul verde cu o liniuță; pentru hărți învecinate, pe săgețile verzi.


METAR-TAF: